Port Allegany, Pennsylvania
Current Conditions -  °F | °C
As of 2:53 PM on Thursday 30 Oct 2014 (Local Time) from KBFD Reporting Station
Overcast Overcast  
Wind Chill: 39°   Ceiling: 2900
Heat Index: 43°   Visibility: 10mi
Dew Point: 34°   Wind: 7mph
Humidity: 71%   Direction: 290°WNW
Pressure: 30.03"   Gusts: NA
Location:  41.81°N, 78.28°W
Report Text: KBFD 301853Z AUTO 29006KT 10SM OVC029 06/01 A3003 RMK AO2 SLP177 T00610011
Loading
Personal Weather Stations






























Interactive Weather Map
Tropical Storm Tracking
New forecast layout! Learn more

10-Day Weather Forecast

Advertisements
Track Severe Weather on mobile